sensor_id;sensor_type;location;lat;lon;timestamp;temperature;humidity
3288;DHT22;3260;52.438;13.502;2022-07-30T04:01:29;19.30;1.00
3288;DHT22;3260;52.438;13.502;2022-07-30T04:04:03;19.40;1.00
3288;DHT22;3260;52.438;13.502;2022-07-30T04:06:32;19.40;1.00
3288;DHT22;3260;52.438;13.502;2022-07-30T04:09:06;19.40;1.00
3288;DHT22;3260;52.438;13.502;2022-07-30T04:11:35;19.50;1.00
3288;DHT22;3260;52.438;13.502;2022-07-30T04:14:07;19.50;1.00
3288;DHT22;3260;52.438;13.502;2022-07-30T04:16:42;19.50;1.00
3288;DHT22;3260;52.438;13.502;2022-07-30T04:19:17;19.60;1.00
3288;DHT22;3260;52.438;13.502;2022-07-30T04:21:50;19.60;1.00
3288;DHT22;3260;52.438;13.502;2022-07-30T04:24:21;19.60;1.00
3288;DHT22;3260;52.438;13.502;2022-07-30T04:26:50;19.60;1.00
3288;DHT22;3260;52.438;13.502;2022-07-30T04:29:19;19.70;1.00
3288;DHT22;3260;52.438;13.502;2022-07-30T04:31:53;19.70;1.00
3288;DHT22;3260;52.438;13.502;2022-07-30T04:34:21;19.80;1.00
3288;DHT22;3260;52.438;13.502;2022-07-30T04:36:49;19.80;1.00
3288;DHT22;3260;52.438;13.502;2022-07-30T04:39:18;19.90;1.00
3288;DHT22;3260;52.438;13.502;2022-07-30T04:41:46;19.90;1.00
3288;DHT22;3260;52.438;13.502;2022-07-30T04:44:16;19.90;1.00
3288;DHT22;3260;52.438;13.502;2022-07-30T04:46:45;20.00;1.00
3288;DHT22;3260;52.438;13.502;2022-07-30T04:49:16;20.10;1.00
3288;DHT22;3260;52.438;13.502;2022-07-30T04:51:46;20.20;1.00
3288;DHT22;3260;52.438;13.502;2022-07-30T04:54:15;20.20;1.00
3288;DHT22;3260;52.438;13.502;2022-07-30T04:56:47;20.20;1.00
3288;DHT22;3260;52.438;13.502;2022-07-30T04:59:22;20.30;1.00
3288;DHT22;3260;52.438;13.502;2022-07-30T05:01:52;20.30;1.00
3288;DHT22;3260;52.438;13.502;2022-07-30T05:04:25;20.40;1.00
3288;DHT22;3260;52.438;13.502;2022-07-30T05:06:56;20.40;1.00
3288;DHT22;3260;52.438;13.502;2022-07-30T05:09:26;20.50;1.00
3288;DHT22;3260;52.438;13.502;2022-07-30T05:11:55;20.50;1.00
3288;DHT22;3260;52.438;13.502;2022-07-30T05:14:27;20.60;1.00
3288;DHT22;3260;52.438;13.502;2022-07-30T05:16:55;20.60;1.00
3288;DHT22;3260;52.438;13.502;2022-07-30T05:19:25;20.60;1.00
3288;DHT22;3260;52.438;13.502;2022-07-30T05:21:53;20.70;1.00
3288;DHT22;3260;52.438;13.502;2022-07-30T05:24:22;20.70;1.00
3288;DHT22;3260;52.438;13.502;2022-07-30T05:26:50;20.80;1.00
3288;DHT22;3260;52.438;13.502;2022-07-30T05:29:18;20.80;1.00
3288;DHT22;3260;52.438;13.502;2022-07-30T05:31:47;20.90;1.00
3288;DHT22;3260;52.438;13.502;2022-07-30T05:34:15;21.00;1.00
3288;DHT22;3260;52.438;13.502;2022-07-30T05:36:45;21.00;1.00
3288;DHT22;3260;52.438;13.502;2022-07-30T05:39:13;21.10;1.00
3288;DHT22;3260;52.438;13.502;2022-07-30T05:41:42;21.20;1.00
3288;DHT22;3260;52.438;13.502;2022-07-30T05:44:10;21.30;1.00
3288;DHT22;3260;52.438;13.502;2022-07-30T05:46:38;21.40;1.00
3288;DHT22;3260;52.438;13.502;2022-07-30T05:49:07;21.50;1.00
3288;DHT22;3260;52.438;13.502;2022-07-30T05:51:35;21.60;1.00
3288;DHT22;3260;52.438;13.502;2022-07-30T05:54:05;21.80;1.00
3288;DHT22;3260;52.438;13.502;2022-07-30T05:56:33;21.80;1.00
3288;DHT22;3260;52.438;13.502;2022-07-30T05:59:01;21.90;1.00
3288;DHT22;3260;52.438;13.502;2022-07-30T06:01:30;22.00;1.00
3288;DHT22;3260;52.438;13.502;2022-07-30T06:03:58;22.00;1.00
3288;DHT22;3260;52.438;13.502;2022-07-30T06:06:26;22.00;1.00
3288;DHT22;3260;52.438;13.502;2022-07-30T06:08:54;22.10;1.00
3288;DHT22;3260;52.438;13.502;2022-07-30T06:11:24;22.10;1.00
3288;DHT22;3260;52.438;13.502;2022-07-30T06:13:52;22.10;1.00
3288;DHT22;3260;52.438;13.502;2022-07-30T06:16:20;22.10;1.00
3288;DHT22;3260;52.438;13.502;2022-07-30T06:18:48;22.00;1.00
3288;DHT22;3260;52.438;13.502;2022-07-30T06:21:16;22.10;1.00
3288;DHT22;3260;52.438;13.502;2022-07-30T06:23:45;22.10;1.00
3288;DHT22;3260;52.438;13.502;2022-07-30T06:26:13;22.10;1.00
3288;DHT22;3260;52.438;13.502;2022-07-30T06:28:43;22.10;1.00
3288;DHT22;3260;52.438;13.502;2022-07-30T06:31:11;22.20;1.00
3288;DHT22;3260;52.438;13.502;2022-07-30T06:33:39;22.20;1.00
3288;DHT22;3260;52.438;13.502;2022-07-30T06:36:07;22.20;1.00
3288;DHT22;3260;52.438;13.502;2022-07-30T06:38:40;22.20;1.00
3288;DHT22;3260;52.438;13.502;2022-07-30T06:41:08;22.20;1.00
3288;DHT22;3260;52.438;13.502;2022-07-30T06:43:37;22.40;1.00
3288;DHT22;3260;52.438;13.502;2022-07-30T06:46:06;22.50;1.00
3288;DHT22;3260;52.438;13.502;2022-07-30T06:48:34;22.60;1.00
3288;DHT22;3260;52.438;13.502;2022-07-30T06:51:03;22.70;1.00
3288;DHT22;3260;52.438;13.502;2022-07-30T06:53:31;22.90;1.00
3288;DHT22;3260;52.438;13.502;2022-07-30T06:56:07;22.90;1.00
3288;DHT22;3260;52.438;13.502;2022-07-30T06:58:36;23.00;1.00
3288;DHT22;3260;52.438;13.502;2022-07-30T07:01:05;23.10;1.00
3288;DHT22;3260;52.438;13.502;2022-07-30T07:03:37;23.20;1.00
3288;DHT22;3260;52.438;13.502;2022-07-30T07:06:06;23.30;1.00
3288;DHT22;3260;52.438;13.502;2022-07-30T07:08:35;23.40;1.00
3288;DHT22;3260;52.438;13.502;2022-07-30T07:11:04;23.50;1.00
3288;DHT22;3260;52.438;13.502;2022-07-30T07:13:32;23.50;1.00
3288;DHT22;3260;52.438;13.502;2022-07-30T07:16:00;23.60;1.00
3288;DHT22;3260;52.438;13.502;2022-07-30T07:18:30;23.70;1.00
3288;DHT22;3260;52.438;13.502;2022-07-30T07:20:58;23.80;1.00
3288;DHT22;3260;52.438;13.502;2022-07-30T07:23:26;24.00;1.00
3288;DHT22;3260;52.438;13.502;2022-07-30T07:26:08;24.10;1.00
3288;DHT22;3260;52.438;13.502;2022-07-30T07:28:38;24.10;1.00
3288;DHT22;3260;52.438;13.502;2022-07-30T07:31:06;24.20;1.00
3288;DHT22;3260;52.438;13.502;2022-07-30T07:33:37;24.30;1.00
3288;DHT22;3260;52.438;13.502;2022-07-30T07:36:06;24.40;1.00
3288;DHT22;3260;52.438;13.502;2022-07-30T07:38:34;24.60;1.00
3288;DHT22;3260;52.438;13.502;2022-07-30T07:41:03;24.70;1.00
3288;DHT22;3260;52.438;13.502;2022-07-30T07:43:32;24.90;1.00
3288;DHT22;3260;52.438;13.502;2022-07-30T07:46:00;24.90;1.00
3288;DHT22;3260;52.438;13.502;2022-07-30T07:48:28;25.10;1.00
3288;DHT22;3260;52.438;13.502;2022-07-30T07:50:58;25.30;1.00
3288;DHT22;3260;52.438;13.502;2022-07-30T07:53:26;25.40;1.00
3288;DHT22;3260;52.438;13.502;2022-07-30T07:55:54;25.60;1.00
3288;DHT22;3260;52.438;13.502;2022-07-30T07:58:23;25.80;1.00
3288;DHT22;3260;52.438;13.502;2022-07-30T08:00:52;26.00;1.00
3288;DHT22;3260;52.438;13.502;2022-07-30T08:03:21;26.20;1.00
3288;DHT22;3260;52.438;13.502;2022-07-30T08:05:49;26.30;1.00
3288;DHT22;3260;52.438;13.502;2022-07-30T08:08:33;26.50;1.00
3288;DHT22;3260;52.438;13.502;2022-07-30T08:11:03;26.60;1.00
3288;DHT22;3260;52.438;13.502;2022-07-30T08:13:32;26.70;1.00
3288;DHT22;3260;52.438;13.502;2022-07-30T08:16:18;26.70;1.00
3288;DHT22;3260;52.438;13.502;2022-07-30T08:18:47;26.80;1.00
3288;DHT22;3260;52.438;13.502;2022-07-30T08:21:15;26.80;1.00
3288;DHT22;3260;52.438;13.502;2022-07-30T08:23:44;26.90;1.00
3288;DHT22;3260;52.438;13.502;2022-07-30T08:26:13;26.90;1.00
3288;DHT22;3260;52.438;13.502;2022-07-30T08:28:41;26.90;1.00
3288;DHT22;3260;52.438;13.502;2022-07-30T08:31:11;26.90;1.00
3288;DHT22;3260;52.438;13.502;2022-07-30T08:33:39;27.10;1.00
3288;DHT22;3260;52.438;13.502;2022-07-30T08:36:07;27.10;1.00
3288;DHT22;3260;52.438;13.502;2022-07-30T08:38:36;27.10;1.00
3288;DHT22;3260;52.438;13.502;2022-07-30T08:41:06;27.20;1.00
3288;DHT22;3260;52.438;13.502;2022-07-30T08:43:35;27.30;1.00
3288;DHT22;3260;52.438;13.502;2022-07-30T08:46:07;27.40;1.00
3288;DHT22;3260;52.438;13.502;2022-07-30T08:48:37;27.50;1.00
3288;DHT22;3260;52.438;13.502;2022-07-30T08:51:08;27.70;1.00
3288;DHT22;3260;52.438;13.502;2022-07-30T08:53:36;27.70;1.00
3288;DHT22;3260;52.438;13.502;2022-07-30T08:56:07;27.70;1.00
3288;DHT22;3260;52.438;13.502;2022-07-30T08:58:35;27.80;1.00
3288;DHT22;3260;52.438;13.502;2022-07-30T09:01:04;27.90;1.00
3288;DHT22;3260;52.438;13.502;2022-07-30T09:03:35;28.00;1.00
3288;DHT22;3260;52.438;13.502;2022-07-30T09:06:10;28.10;1.00
3288;DHT22;3260;52.438;13.502;2022-07-30T09:08:39;28.30;1.00
3288;DHT22;3260;52.438;13.502;2022-07-30T09:11:09;28.50;1.00
3288;DHT22;3260;52.438;13.502;2022-07-30T09:13:39;28.60;1.00
3288;DHT22;3260;52.438;13.502;2022-07-30T09:16:18;28.70;1.00
3288;DHT22;3260;52.438;13.502;2022-07-30T09:18:49;28.70;1.00
3288;DHT22;3260;52.438;13.502;2022-07-30T09:21:19;28.80;1.00
3288;DHT22;3260;52.438;13.502;2022-07-30T09:23:57;28.90;1.00
3288;DHT22;3260;52.438;13.502;2022-07-30T09:26:29;28.90;1.00
3288;DHT22;3260;52.438;13.502;2022-07-30T09:29:14;29.00;1.00
3288;DHT22;3260;52.438;13.502;2022-07-30T09:31:52;29.00;1.00
3288;DHT22;3260;52.438;13.502;2022-07-30T09:34:23;29.00;1.00
3288;DHT22;3260;52.438;13.502;2022-07-30T09:36:53;29.10;1.00
3288;DHT22;3260;52.438;13.502;2022-07-30T09:39:30;29.30;1.00
3288;DHT22;3260;52.438;13.502;2022-07-30T09:42:01;29.30;1.00
3288;DHT22;3260;52.438;13.502;2022-07-30T09:44:31;29.40;1.00
3288;DHT22;3260;52.438;13.502;2022-07-30T09:46:59;29.40;1.00
3288;DHT22;3260;52.438;13.502;2022-07-30T09:49:28;29.50;1.00
3288;DHT22;3260;52.438;13.502;2022-07-30T09:51:57;29.50;1.00
3288;DHT22;3260;52.438;13.502;2022-07-30T09:54:44;29.50;1.00
3288;DHT22;3260;52.438;13.502;2022-07-30T09:57:53;29.50;1.00
3288;DHT22;3260;52.438;13.502;2022-07-30T10:00:25;29.40;1.00
3288;DHT22;3260;52.438;13.502;2022-07-30T10:02:55;29.30;1.00
3288;DHT22;3260;52.438;13.502;2022-07-30T10:05:23;29.30;1.00
3288;DHT22;3260;52.438;13.502;2022-07-30T10:07:54;29.30;1.00
3288;DHT22;3260;52.438;13.502;2022-07-30T10:10:25;29.20;1.00
3288;DHT22;3260;52.438;13.502;2022-07-30T10:12:59;29.20;1.00
3288;DHT22;3260;52.438;13.502;2022-07-30T10:15:31;29.20;1.00
3288;DHT22;3260;52.438;13.502;2022-07-30T10:18:01;29.20;1.00
3288;DHT22;3260;52.438;13.502;2022-07-30T10:20:32;29.30;1.00
3288;DHT22;3260;52.438;13.502;2022-07-30T10:23:01;29.30;1.00
3288;DHT22;3260;52.438;13.502;2022-07-30T10:25:38;29.50;1.00
3288;DHT22;3260;52.438;13.502;2022-07-30T10:28:22;29.60;1.00
3288;DHT22;3260;52.438;13.502;2022-07-30T10:30:51;29.80;1.00
3288;DHT22;3260;52.438;13.502;2022-07-30T10:33:22;30.00;1.00
3288;DHT22;3260;52.438;13.502;2022-07-30T10:36:03;30.10;1.00
3288;DHT22;3260;52.438;13.502;2022-07-30T10:38:37;30.20;1.00
3288;DHT22;3260;52.438;13.502;2022-07-30T10:41:16;30.40;1.00
3288;DHT22;3260;52.438;13.502;2022-07-30T10:47:31;30.40;1.00
3288;DHT22;3260;52.438;13.502;2022-07-30T10:50:12;30.60;1.00
3288;DHT22;3260;52.438;13.502;2022-07-30T10:52:45;30.70;1.00
3288;DHT22;3260;52.438;13.502;2022-07-30T10:55:19;30.70;1.00
3288;DHT22;3260;52.438;13.502;2022-07-30T10:58:06;30.80;1.00
3288;DHT22;3260;52.438;13.502;2022-07-30T11:00:57;30.80;1.00
3288;DHT22;3260;52.438;13.502;2022-07-30T11:03:26;30.90;1.00
3288;DHT22;3260;52.438;13.502;2022-07-30T11:06:26;30.90;1.00
3288;DHT22;3260;52.438;13.502;2022-07-30T11:08:55;31.00;1.00
3288;DHT22;3260;52.438;13.502;2022-07-30T11:11:44;30.90;1.00
3288;DHT22;3260;52.438;13.502;2022-07-30T11:14:57;30.80;1.00
3288;DHT22;3260;52.438;13.502;2022-07-30T11:18:00;30.70;1.00
3288;DHT22;3260;52.438;13.502;2022-07-30T11:20:39;30.50;1.00
3288;DHT22;3260;52.438;13.502;2022-07-30T11:23:35;30.50;1.00
3288;DHT22;3260;52.438;13.502;2022-07-30T11:26:06;30.60;1.00
3288;DHT22;3260;52.438;13.502;2022-07-30T11:28:41;30.70;1.00
3288;DHT22;3260;52.438;13.502;2022-07-30T11:31:28;30.90;1.00
3288;DHT22;3260;52.438;13.502;2022-07-30T11:34:26;31.10;1.00
3288;DHT22;3260;52.438;13.502;2022-07-30T11:37:08;31.40;1.00
3288;DHT22;3260;52.438;13.502;2022-07-30T11:40:10;31.50;1.00
3288;DHT22;3260;52.438;13.502;2022-07-30T11:42:40;31.90;1.00
3288;DHT22;3260;52.438;13.502;2022-07-30T11:45:23;32.30;1.00
3288;DHT22;3260;52.438;13.502;2022-07-30T11:47:59;32.70;1.00
3288;DHT22;3260;52.438;13.502;2022-07-30T11:50:30;33.50;1.00
3288;DHT22;3260;52.438;13.502;2022-07-30T11:53:01;34.40;1.00
3288;DHT22;3260;52.438;13.502;2022-07-30T11:55:33;35.30;1.00
3288;DHT22;3260;52.438;13.502;2022-07-30T11:58:05;36.30;1.00
3288;DHT22;3260;52.438;13.502;2022-07-30T12:00:38;37.00;1.00
3288;DHT22;3260;52.438;13.502;2022-07-30T12:03:12;37.30;1.00
3288;DHT22;3260;52.438;13.502;2022-07-30T12:05:43;37.40;1.00
3288;DHT22;3260;52.438;13.502;2022-07-30T12:08:19;37.10;1.00
3288;DHT22;3260;52.438;13.502;2022-07-30T12:11:02;37.40;1.00
3288;DHT22;3260;52.438;13.502;2022-07-30T12:13:30;37.80;1.00
3288;DHT22;3260;52.438;13.502;2022-07-30T12:16:13;38.20;1.00
3288;DHT22;3260;52.438;13.502;2022-07-30T12:18:43;38.10;1.00
3288;DHT22;3260;52.438;13.502;2022-07-30T12:21:14;37.90;1.00
3288;DHT22;3260;52.438;13.502;2022-07-30T12:23:52;38.10;1.00
3288;DHT22;3260;52.438;13.502;2022-07-30T12:26:23;38.60;1.00
3288;DHT22;3260;52.438;13.502;2022-07-30T12:28:53;39.10;1.00
3288;DHT22;3260;52.438;13.502;2022-07-30T12:31:22;39.20;1.00
3288;DHT22;3260;52.438;13.502;2022-07-30T12:33:51;39.60;1.00
3288;DHT22;3260;52.438;13.502;2022-07-30T12:36:30;39.70;1.00
3288;DHT22;3260;52.438;13.502;2022-07-30T12:39:02;39.90;1.00
3288;DHT22;3260;52.438;13.502;2022-07-30T12:41:42;40.40;1.00
3288;DHT22;3260;52.438;13.502;2022-07-30T12:44:33;40.40;1.00
3288;DHT22;3260;52.438;13.502;2022-07-30T12:47:16;40.60;1.00
3288;DHT22;3260;52.438;13.502;2022-07-30T12:49:46;41.20;1.00
3288;DHT22;3260;52.438;13.502;2022-07-30T12:52:26;41.90;1.00
3288;DHT22;3260;52.438;13.502;2022-07-30T12:54:58;42.10;1.00
3288;DHT22;3260;52.438;13.502;2022-07-30T12:57:50;42.80;1.00
3288;DHT22;3260;52.438;13.502;2022-07-30T13:00:24;44.60;1.00
3288;DHT22;3260;52.438;13.502;2022-07-30T13:02:54;46.30;1.00
3288;DHT22;3260;52.438;13.502;2022-07-30T13:05:45;47.80;1.00
3288;DHT22;3260;52.438;13.502;2022-07-30T13:08:16;49.40;1.00
3288;DHT22;3260;52.438;13.502;2022-07-30T13:10:55;50.70;1.00
3288;DHT22;3260;52.438;13.502;2022-07-30T13:13:25;51.50;1.00
3288;DHT22;3260;52.438;13.502;2022-07-30T13:15:58;52.10;1.00
3288;DHT22;3260;52.438;13.502;2022-07-30T13:18:28;52.00;1.00
3288;DHT22;3260;52.438;13.502;2022-07-30T13:20:57;50.70;1.00
3288;DHT22;3260;52.438;13.502;2022-07-30T13:23:27;49.80;1.00
3288;DHT22;3260;52.438;13.502;2022-07-30T13:25:56;49.80;1.00
3288;DHT22;3260;52.438;13.502;2022-07-30T13:28:24;50.10;1.00
3288;DHT22;3260;52.438;13.502;2022-07-30T13:30:54;51.10;1.00
3288;DHT22;3260;52.438;13.502;2022-07-30T13:33:23;52.10;1.00
3288;DHT22;3260;52.438;13.502;2022-07-30T13:35:51;51.10;1.00
3288;DHT22;3260;52.438;13.502;2022-07-30T13:38:19;50.20;1.00
3288;DHT22;3260;52.438;13.502;2022-07-30T13:40:49;50.20;1.00
3288;DHT22;3260;52.438;13.502;2022-07-30T13:43:17;50.60;1.00
3288;DHT22;3260;52.438;13.502;2022-07-30T13:45:46;50.90;1.00
3288;DHT22;3260;52.438;13.502;2022-07-30T13:48:15;50.20;1.00
3288;DHT22;3260;52.438;13.502;2022-07-30T13:50:43;49.90;1.00
3288;DHT22;3260;52.438;13.502;2022-07-30T13:53:12;50.40;1.00
3288;DHT22;3260;52.438;13.502;2022-07-30T13:55:40;51.60;1.00
3288;DHT22;3260;52.438;13.502;2022-07-30T13:58:10;52.90;1.00
3288;DHT22;3260;52.438;13.502;2022-07-30T14:00:38;54.20;1.00
3288;DHT22;3260;52.438;13.502;2022-07-30T14:03:08;55.00;1.00
3288;DHT22;3260;52.438;13.502;2022-07-30T14:05:38;55.70;1.00
3288;DHT22;3260;52.438;13.502;2022-07-30T14:08:09;56.60;1.00
3288;DHT22;3260;52.438;13.502;2022-07-30T14:10:38;57.30;1.00
3288;DHT22;3260;52.438;13.502;2022-07-30T14:13:09;57.80;1.00
3288;DHT22;3260;52.438;13.502;2022-07-30T14:15:46;57.70;1.00
3288;DHT22;3260;52.438;13.502;2022-07-30T14:18:15;57.30;1.00
3288;DHT22;3260;52.438;13.502;2022-07-30T14:20:43;57.20;1.00
3288;DHT22;3260;52.438;13.502;2022-07-30T14:23:14;57.10;1.00
3288;DHT22;3260;52.438;13.502;2022-07-30T14:25:43;56.60;1.00
3288;DHT22;3260;52.438;13.502;2022-07-30T14:28:13;56.60;1.00
3288;DHT22;3260;52.438;13.502;2022-07-30T14:30:42;55.60;1.00
3288;DHT22;3260;52.438;13.502;2022-07-30T14:33:10;55.40;1.00
3288;DHT22;3260;52.438;13.502;2022-07-30T14:35:38;55.50;1.00
3288;DHT22;3260;52.438;13.502;2022-07-30T14:38:06;56.00;1.00
3288;DHT22;3260;52.438;13.502;2022-07-30T14:40:34;56.00;1.00
3288;DHT22;3260;52.438;13.502;2022-07-30T14:43:02;56.30;1.00
3288;DHT22;3260;52.438;13.502;2022-07-30T14:45:33;56.30;1.00
3288;DHT22;3260;52.438;13.502;2022-07-30T14:48:02;56.20;1.00
3288;DHT22;3260;52.438;13.502;2022-07-30T14:50:30;56.00;1.00
3288;DHT22;3260;52.438;13.502;2022-07-30T14:52:59;56.40;1.00
3288;DHT22;3260;52.438;13.502;2022-07-30T14:55:27;57.00;1.00
3288;DHT22;3260;52.438;13.502;2022-07-30T14:57:55;57.50;1.00
3288;DHT22;3260;52.438;13.502;2022-07-30T15:00:23;58.20;1.00
3288;DHT22;3260;52.438;13.502;2022-07-30T15:02:52;58.40;1.00
3288;DHT22;3260;52.438;13.502;2022-07-30T15:05:21;58.70;1.00
3288;DHT22;3260;52.438;13.502;2022-07-30T15:07:49;58.70;1.00
3288;DHT22;3260;52.438;13.502;2022-07-30T15:10:17;58.20;1.00
3288;DHT22;3260;52.438;13.502;2022-07-30T15:12:48;56.50;1.00
3288;DHT22;3260;52.438;13.502;2022-07-30T15:15:16;55.50;1.00
3288;DHT22;3260;52.438;13.502;2022-07-30T15:17:47;54.90;1.00
3288;DHT22;3260;52.438;13.502;2022-07-30T15:20:17;54.60;1.00
3288;DHT22;3260;52.438;13.502;2022-07-30T15:22:46;53.70;1.00
3288;DHT22;3260;52.438;13.502;2022-07-30T15:25:14;53.50;1.00
3288;DHT22;3260;52.438;13.502;2022-07-30T15:27:42;53.30;1.00
3288;DHT22;3260;52.438;13.502;2022-07-30T15:30:11;53.50;1.00
3288;DHT22;3260;52.438;13.502;2022-07-30T15:32:39;53.80;1.00
3288;DHT22;3260;52.438;13.502;2022-07-30T15:35:08;53.30;1.00
3288;DHT22;3260;52.438;13.502;2022-07-30T15:37:41;53.20;1.00
3288;DHT22;3260;52.438;13.502;2022-07-30T15:40:09;53.40;1.00
3288;DHT22;3260;52.438;13.502;2022-07-30T15:42:37;53.60;1.00
3288;DHT22;3260;52.438;13.502;2022-07-30T15:45:06;53.80;1.00
3288;DHT22;3260;52.438;13.502;2022-07-30T15:47:44;52.50;1.00
3288;DHT22;3260;52.438;13.502;2022-07-30T15:50:13;50.10;1.00
3288;DHT22;3260;52.438;13.502;2022-07-30T15:52:44;48.80;1.00
3288;DHT22;3260;52.438;13.502;2022-07-30T15:55:12;48.80;1.00
3288;DHT22;3260;52.438;13.502;2022-07-30T15:57:40;49.00;1.00
3288;DHT22;3260;52.438;13.502;2022-07-30T16:00:10;48.90;1.00
3288;DHT22;3260;52.438;13.502;2022-07-30T16:02:38;49.10;1.00
3288;DHT22;3260;52.438;13.502;2022-07-30T16:05:08;49.40;1.00
3288;DHT22;3260;52.438;13.502;2022-07-30T16:07:40;49.80;1.00
3288;DHT22;3260;52.438;13.502;2022-07-30T16:10:09;50.40;1.00
3288;DHT22;3260;52.438;13.502;2022-07-30T16:12:38;50.60;1.00
3288;DHT22;3260;52.438;13.502;2022-07-30T16:15:08;50.80;1.00
3288;DHT22;3260;52.438;13.502;2022-07-30T16:17:37;50.80;1.00
3288;DHT22;3260;52.438;13.502;2022-07-30T16:20:06;50.80;1.00
3288;DHT22;3260;52.438;13.502;2022-07-30T16:22:36;50.40;1.00
3288;DHT22;3260;52.438;13.502;2022-07-30T16:25:05;50.20;1.00
3288;DHT22;3260;52.438;13.502;2022-07-30T16:27:35;49.80;1.00
3288;DHT22;3260;52.438;13.502;2022-07-30T16:30:04;49.60;1.00
3288;DHT22;3260;52.438;13.502;2022-07-30T16:32:32;49.40;1.00
3288;DHT22;3260;52.438;13.502;2022-07-30T16:35:01;49.60;1.00
3288;DHT22;3260;52.438;13.502;2022-07-30T16:37:29;49.50;1.00
3288;DHT22;3260;52.438;13.502;2022-07-30T16:39:57;49.10;1.00
3288;DHT22;3260;52.438;13.502;2022-07-30T16:42:25;48.90;1.00
3288;DHT22;3260;52.438;13.502;2022-07-30T16:44:54;48.50;1.00
3288;DHT22;3260;52.438;13.502;2022-07-30T16:47:22;48.00;1.00
3288;DHT22;3260;52.438;13.502;2022-07-30T16:49:51;47.70;1.00
3288;DHT22;3260;52.438;13.502;2022-07-30T16:52:19;47.60;1.00
3288;DHT22;3260;52.438;13.502;2022-07-30T16:54:52;47.30;1.00
3288;DHT22;3260;52.438;13.502;2022-07-30T16:57:20;47.10;1.00
3288;DHT22;3260;52.438;13.502;2022-07-30T16:59:48;46.40;1.00
3288;DHT22;3260;52.438;13.502;2022-07-30T17:02:17;45.90;1.00
3288;DHT22;3260;52.438;13.502;2022-07-30T17:04:46;45.40;1.00
3288;DHT22;3260;52.438;13.502;2022-07-30T17:07:14;45.10;1.00
3288;DHT22;3260;52.438;13.502;2022-07-30T17:09:42;45.00;1.00
3288;DHT22;3260;52.438;13.502;2022-07-30T17:12:17;44.60;1.00
3288;DHT22;3260;52.438;13.502;2022-07-30T17:14:51;44.70;1.00
3288;DHT22;3260;52.438;13.502;2022-07-30T17:17:20;44.60;1.00
3288;DHT22;3260;52.438;13.502;2022-07-30T17:19:48;44.30;1.00
3288;DHT22;3260;52.438;13.502;2022-07-30T17:22:17;44.30;1.00
3288;DHT22;3260;52.438;13.502;2022-07-30T17:24:45;44.20;1.00
3288;DHT22;3260;52.438;13.502;2022-07-30T17:27:13;43.60;1.00
3288;DHT22;3260;52.438;13.502;2022-07-30T17:29:41;42.90;1.00
3288;DHT22;3260;52.438;13.502;2022-07-30T17:32:17;42.40;1.00
3288;DHT22;3260;52.438;13.502;2022-07-30T17:34:47;42.20;1.00
3288;DHT22;3260;52.438;13.502;2022-07-30T17:37:15;42.00;1.00
3288;DHT22;3260;52.438;13.502;2022-07-30T17:39:44;41.70;1.00
3288;DHT22;3260;52.438;13.502;2022-07-30T17:42:32;41.30;1.00
3288;DHT22;3260;52.438;13.502;2022-07-30T17:45:00;40.70;1.00
3288;DHT22;3260;52.438;13.502;2022-07-30T17:47:30;40.20;1.00
3288;DHT22;3260;52.438;13.502;2022-07-30T17:50:01;39.90;1.00
3288;DHT22;3260;52.438;13.502;2022-07-30T17:52:30;39.30;1.00
3288;DHT22;3260;52.438;13.502;2022-07-30T17:54:58;38.80;1.00
3288;DHT22;3260;52.438;13.502;2022-07-30T17:57:27;38.20;1.00
3288;DHT22;3260;52.438;13.502;2022-07-30T17:59:55;37.80;1.00
3288;DHT22;3260;52.438;13.502;2022-07-30T18:02:23;37.30;1.00
3288;DHT22;3260;52.438;13.502;2022-07-30T18:04:54;36.40;1.00
3288;DHT22;3260;52.438;13.502;2022-07-30T18:07:24;35.40;1.00
3288;DHT22;3260;52.438;13.502;2022-07-30T18:09:52;34.40;1.00
3288;DHT22;3260;52.438;13.502;2022-07-30T18:12:20;33.40;1.00
3288;DHT22;3260;52.438;13.502;2022-07-30T18:14:49;32.50;1.00
3288;DHT22;3260;52.438;13.502;2022-07-30T18:17:17;31.50;1.00
3288;DHT22;3260;52.438;13.502;2022-07-30T18:19:45;30.50;1.00
3288;DHT22;3260;52.438;13.502;2022-07-30T18:22:14;29.80;1.00
3288;DHT22;3260;52.438;13.502;2022-07-30T18:24:56;29.20;1.00
3288;DHT22;3260;52.438;13.502;2022-07-30T18:27:26;28.60;1.00
3288;DHT22;3260;52.438;13.502;2022-07-30T18:29:56;28.20;1.00
3288;DHT22;3260;52.438;13.502;2022-07-30T18:32:24;27.80;1.00
3288;DHT22;3260;52.438;13.502;2022-07-30T18:34:52;27.40;1.00
3288;DHT22;3260;52.438;13.502;2022-07-30T18:37:21;27.10;1.00
3288;DHT22;3260;52.438;13.502;2022-07-30T18:39:49;26.70;1.00
3288;DHT22;3260;52.438;13.502;2022-07-30T18:42:18;26.40;1.00
3288;DHT22;3260;52.438;13.502;2022-07-30T18:44:49;26.10;1.00
3288;DHT22;3260;52.438;13.502;2022-07-30T18:47:17;25.90;1.00
3288;DHT22;3260;52.438;13.502;2022-07-30T18:49:45;25.70;1.00
3288;DHT22;3260;52.438;13.502;2022-07-30T18:52:16;25.50;1.00
3288;DHT22;3260;52.438;13.502;2022-07-30T18:54:44;25.30;1.00
3288;DHT22;3260;52.438;13.502;2022-07-30T18:57:12;24.90;1.00
3288;DHT22;3260;52.438;13.502;2022-07-30T18:59:41;24.60;1.00
3288;DHT22;3260;52.438;13.502;2022-07-30T19:02:09;24.30;1.00
3288;DHT22;3260;52.438;13.502;2022-07-30T19:04:38;24.10;1.00
3288;DHT22;3260;52.438;13.502;2022-07-30T19:07:06;23.90;1.00
3288;DHT22;3260;52.438;13.502;2022-07-30T19:09:34;23.70;1.00
3288;DHT22;3260;52.438;13.502;2022-07-30T19:12:03;23.60;1.00
3288;DHT22;3260;52.438;13.502;2022-07-30T19:14:32;23.40;1.00
3288;DHT22;3260;52.438;13.502;2022-07-30T19:17:02;23.40;1.00
3288;DHT22;3260;52.438;13.502;2022-07-30T19:19:39;23.30;1.00
3288;DHT22;3260;52.438;13.502;2022-07-30T19:22:07;23.20;1.00
3288;DHT22;3260;52.438;13.502;2022-07-30T19:24:35;23.20;1.00
3288;DHT22;3260;52.438;13.502;2022-07-30T19:27:04;23.10;1.00
3288;DHT22;3260;52.438;13.502;2022-07-30T19:29:39;23.10;1.00
3288;DHT22;3260;52.438;13.502;2022-07-30T19:32:09;23.00;1.00
3288;DHT22;3260;52.438;13.502;2022-07-30T19:34:38;23.00;1.00
3288;DHT22;3260;52.438;13.502;2022-07-30T19:37:09;22.90;1.00
3288;DHT22;3260;52.438;13.502;2022-07-30T19:39:37;22.80;1.00
3288;DHT22;3260;52.438;13.502;2022-07-30T19:42:25;22.80;1.00
3288;DHT22;3260;52.438;13.502;2022-07-30T19:44:56;22.70;1.00
3288;DHT22;3260;52.438;13.502;2022-07-30T19:47:28;22.70;1.00
3288;DHT22;3260;52.438;13.502;2022-07-30T19:50:06;22.60;1.00
3288;DHT22;3260;52.438;13.502;2022-07-30T19:52:35;22.60;1.00
3288;DHT22;3260;52.438;13.502;2022-07-30T19:55:04;22.50;1.00
3288;DHT22;3260;52.438;13.502;2022-07-30T19:57:53;22.50;1.00
3288;DHT22;3260;52.438;13.502;2022-07-30T20:00:22;22.40;1.00
3288;DHT22;3260;52.438;13.502;2022-07-30T20:02:52;22.30;1.00
3288;DHT22;3260;52.438;13.502;2022-07-30T20:05:21;22.30;1.00
3288;DHT22;3260;52.438;13.502;2022-07-30T20:07:50;22.10;1.00
3288;DHT22;3260;52.438;13.502;2022-07-30T20:10:21;22.10;1.00
3288;DHT22;3260;52.438;13.502;2022-07-30T20:12:49;22.00;1.00
3288;DHT22;3260;52.438;13.502;2022-07-30T20:15:18;21.90;1.00
3288;DHT22;3260;52.438;13.502;2022-07-30T20:17:46;21.90;1.00
3288;DHT22;3260;52.438;13.502;2022-07-30T20:20:15;21.80;1.00
3288;DHT22;3260;52.438;13.502;2022-07-30T20:22:51;21.80;1.00
3288;DHT22;3260;52.438;13.502;2022-07-30T20:25:20;21.70;1.00
3288;DHT22;3260;52.438;13.502;2022-07-30T20:27:48;21.70;1.00
3288;DHT22;3260;52.438;13.502;2022-07-30T20:30:17;21.70;1.00
3288;DHT22;3260;52.438;13.502;2022-07-30T20:32:51;21.60;1.00